sensor_id;sensor_type;location;lat;lon;timestamp;temperature;humidity
53422;DHT22;39319;52.944;5.928;2022-07-09T00:01:24;18.40;99.90
53422;DHT22;39319;52.944;5.928;2022-07-09T00:03:50;18.50;99.90
53422;DHT22;39319;52.944;5.928;2022-07-09T00:06:18;18.50;99.90
53422;DHT22;39319;52.944;5.928;2022-07-09T00:08:43;18.40;99.90
53422;DHT22;39319;52.944;5.928;2022-07-09T00:11:09;18.40;99.90
53422;DHT22;39319;52.944;5.928;2022-07-09T00:13:35;18.30;99.90
53422;DHT22;39319;52.944;5.928;2022-07-09T00:16:01;18.20;99.90
53422;DHT22;39319;52.944;5.928;2022-07-09T00:18:28;18.20;99.90
53422;DHT22;39319;52.944;5.928;2022-07-09T00:20:54;18.20;99.90
53422;DHT22;39319;52.944;5.928;2022-07-09T00:23:20;18.10;99.90
53422;DHT22;39319;52.944;5.928;2022-07-09T00:25:46;18.10;99.90
53422;DHT22;39319;52.944;5.928;2022-07-09T00:28:12;18.10;99.90
53422;DHT22;39319;52.944;5.928;2022-07-09T00:30:38;18.10;99.90
53422;DHT22;39319;52.944;5.928;2022-07-09T00:33:03;18.10;99.90
53422;DHT22;39319;52.944;5.928;2022-07-09T00:35:29;18.10;99.90
53422;DHT22;39319;52.944;5.928;2022-07-09T00:37:55;18.10;99.90
53422;DHT22;39319;52.944;5.928;2022-07-09T00:40:21;18.10;99.90
53422;DHT22;39319;52.944;5.928;2022-07-09T00:42:47;18.20;99.90
53422;DHT22;39319;52.944;5.928;2022-07-09T00:45:13;18.20;99.90
53422;DHT22;39319;52.944;5.928;2022-07-09T00:47:39;18.20;99.90
53422;DHT22;39319;52.944;5.928;2022-07-09T00:50:06;18.20;99.90
53422;DHT22;39319;52.944;5.928;2022-07-09T00:52:33;18.20;99.90
53422;DHT22;39319;52.944;5.928;2022-07-09T00:55:01;18.20;99.90
53422;DHT22;39319;52.944;5.928;2022-07-09T00:57:28;18.20;99.90
53422;DHT22;39319;52.944;5.928;2022-07-09T00:59:54;18.10;99.90
53422;DHT22;39319;52.944;5.928;2022-07-09T01:02:21;18.20;99.90
53422;DHT22;39319;52.944;5.928;2022-07-09T01:04:47;18.20;99.90
53422;DHT22;39319;52.944;5.928;2022-07-09T01:07:13;18.20;99.90
53422;DHT22;39319;52.944;5.928;2022-07-09T01:09:39;18.20;99.90
53422;DHT22;39319;52.944;5.928;2022-07-09T01:12:06;18.20;99.90
53422;DHT22;39319;52.944;5.928;2022-07-09T01:14:32;18.20;99.90
53422;DHT22;39319;52.944;5.928;2022-07-09T01:16:59;18.30;99.90
53422;DHT22;39319;52.944;5.928;2022-07-09T01:19:29;18.30;99.90
53422;DHT22;39319;52.944;5.928;2022-07-09T01:21:55;18.20;99.90
53422;DHT22;39319;52.944;5.928;2022-07-09T01:24:23;18.30;99.90
53422;DHT22;39319;52.944;5.928;2022-07-09T01:26:49;18.30;99.90
53422;DHT22;39319;52.944;5.928;2022-07-09T01:29:15;18.30;99.90
53422;DHT22;39319;52.944;5.928;2022-07-09T01:31:41;18.40;99.90
53422;DHT22;39319;52.944;5.928;2022-07-09T01:34:07;18.40;99.90
53422;DHT22;39319;52.944;5.928;2022-07-09T01:36:33;18.40;99.90
53422;DHT22;39319;52.944;5.928;2022-07-09T01:38:59;18.50;99.90
53422;DHT22;39319;52.944;5.928;2022-07-09T01:41:25;18.40;99.90
53422;DHT22;39319;52.944;5.928;2022-07-09T01:43:51;18.50;99.90
53422;DHT22;39319;52.944;5.928;2022-07-09T01:46:17;18.40;99.90
53422;DHT22;39319;52.944;5.928;2022-07-09T01:48:42;18.50;99.90
53422;DHT22;39319;52.944;5.928;2022-07-09T01:51:09;18.50;99.90
53422;DHT22;39319;52.944;5.928;2022-07-09T01:53:37;18.50;99.90
53422;DHT22;39319;52.944;5.928;2022-07-09T01:56:11;18.50;99.90
53422;DHT22;39319;52.944;5.928;2022-07-09T01:58:37;18.50;99.90
53422;DHT22;39319;52.944;5.928;2022-07-09T02:01:04;18.50;99.90
53422;DHT22;39319;52.944;5.928;2022-07-09T02:03:30;18.50;99.90
53422;DHT22;39319;52.944;5.928;2022-07-09T02:05:55;18.50;99.90
53422;DHT22;39319;52.944;5.928;2022-07-09T02:08:22;18.50;99.90
53422;DHT22;39319;52.944;5.928;2022-07-09T02:10:49;18.50;99.90
53422;DHT22;39319;52.944;5.928;2022-07-09T02:13:15;18.50;99.90
53422;DHT22;39319;52.944;5.928;2022-07-09T02:15:40;18.50;99.90
53422;DHT22;39319;52.944;5.928;2022-07-09T02:18:09;18.50;99.90
53422;DHT22;39319;52.944;5.928;2022-07-09T02:20:35;18.50;99.90
53422;DHT22;39319;52.944;5.928;2022-07-09T02:23:00;18.50;99.90
53422;DHT22;39319;52.944;5.928;2022-07-09T02:25:26;18.50;99.90
53422;DHT22;39319;52.944;5.928;2022-07-09T02:27:53;18.50;99.90
53422;DHT22;39319;52.944;5.928;2022-07-09T02:30:19;18.50;99.90
53422;DHT22;39319;52.944;5.928;2022-07-09T02:32:47;18.50;99.90
53422;DHT22;39319;52.944;5.928;2022-07-09T02:35:13;18.50;99.90
53422;DHT22;39319;52.944;5.928;2022-07-09T02:37:39;18.50;99.90
53422;DHT22;39319;52.944;5.928;2022-07-09T02:40:06;18.50;99.90
53422;DHT22;39319;52.944;5.928;2022-07-09T02:42:35;18.50;99.90
53422;DHT22;39319;52.944;5.928;2022-07-09T02:45:02;18.50;99.90
53422;DHT22;39319;52.944;5.928;2022-07-09T02:47:31;18.50;99.90
53422;DHT22;39319;52.944;5.928;2022-07-09T02:49:57;18.50;99.90
53422;DHT22;39319;52.944;5.928;2022-07-09T02:52:22;18.50;99.90
53422;DHT22;39319;52.944;5.928;2022-07-09T02:54:48;18.40;99.90
53422;DHT22;39319;52.944;5.928;2022-07-09T02:57:14;18.40;99.90
53422;DHT22;39319;52.944;5.928;2022-07-09T02:59:40;18.40;99.90
53422;DHT22;39319;52.944;5.928;2022-07-09T03:02:08;18.40;99.90
53422;DHT22;39319;52.944;5.928;2022-07-09T03:04:34;18.40;99.90
53422;DHT22;39319;52.944;5.928;2022-07-09T03:07:03;18.40;99.90
53422;DHT22;39319;52.944;5.928;2022-07-09T03:09:29;18.40;99.90
53422;DHT22;39319;52.944;5.928;2022-07-09T03:11:54;18.30;99.90
53422;DHT22;39319;52.944;5.928;2022-07-09T03:14:20;18.30;99.90
53422;DHT22;39319;52.944;5.928;2022-07-09T03:16:46;18.30;99.90
53422;DHT22;39319;52.944;5.928;2022-07-09T03:19:12;18.30;99.90
53422;DHT22;39319;52.944;5.928;2022-07-09T03:21:38;18.30;99.90
53422;DHT22;39319;52.944;5.928;2022-07-09T03:24:04;18.30;99.90
53422;DHT22;39319;52.944;5.928;2022-07-09T03:26:33;18.30;99.90
53422;DHT22;39319;52.944;5.928;2022-07-09T03:28:59;18.20;99.90
53422;DHT22;39319;52.944;5.928;2022-07-09T03:31:28;18.20;99.90
53422;DHT22;39319;52.944;5.928;2022-07-09T03:33:53;18.20;99.90
53422;DHT22;39319;52.944;5.928;2022-07-09T03:36:19;18.20;99.90
53422;DHT22;39319;52.944;5.928;2022-07-09T03:38:45;18.20;99.90
53422;DHT22;39319;52.944;5.928;2022-07-09T03:41:11;18.20;99.90
53422;DHT22;39319;52.944;5.928;2022-07-09T03:43:37;18.20;99.90
53422;DHT22;39319;52.944;5.928;2022-07-09T03:46:03;18.20;99.90
53422;DHT22;39319;52.944;5.928;2022-07-09T03:48:31;18.20;99.90
53422;DHT22;39319;52.944;5.928;2022-07-09T03:50:59;18.20;99.90
53422;DHT22;39319;52.944;5.928;2022-07-09T03:53:25;18.20;99.90
53422;DHT22;39319;52.944;5.928;2022-07-09T03:55:51;18.20;99.90
53422;DHT22;39319;52.944;5.928;2022-07-09T03:58:17;18.20;99.90
53422;DHT22;39319;52.944;5.928;2022-07-09T04:00:43;18.20;99.90
53422;DHT22;39319;52.944;5.928;2022-07-09T04:03:09;18.20;99.90
53422;DHT22;39319;52.944;5.928;2022-07-09T04:05:34;18.20;99.90
53422;DHT22;39319;52.944;5.928;2022-07-09T04:08:00;18.20;99.90
53422;DHT22;39319;52.944;5.928;2022-07-09T04:10:26;18.10;99.90
53422;DHT22;39319;52.944;5.928;2022-07-09T04:12:51;18.10;99.90
53422;DHT22;39319;52.944;5.928;2022-07-09T04:15:21;18.10;99.90
53422;DHT22;39319;52.944;5.928;2022-07-09T04:17:49;18.10;99.90
53422;DHT22;39319;52.944;5.928;2022-07-09T04:20:15;18.20;99.90
53422;DHT22;39319;52.944;5.928;2022-07-09T04:22:40;18.20;99.90
53422;DHT22;39319;52.944;5.928;2022-07-09T04:25:07;18.20;99.90
53422;DHT22;39319;52.944;5.928;2022-07-09T04:27:33;18.20;99.90
53422;DHT22;39319;52.944;5.928;2022-07-09T04:30:01;18.20;99.90
53422;DHT22;39319;52.944;5.928;2022-07-09T04:32:28;18.10;99.90
53422;DHT22;39319;52.944;5.928;2022-07-09T04:34:54;18.10;99.90
53422;DHT22;39319;52.944;5.928;2022-07-09T04:37:21;18.10;99.90
53422;DHT22;39319;52.944;5.928;2022-07-09T04:39:47;18.20;99.90
53422;DHT22;39319;52.944;5.928;2022-07-09T04:42:13;18.10;99.90
53422;DHT22;39319;52.944;5.928;2022-07-09T04:44:42;18.10;99.90
53422;DHT22;39319;52.944;5.928;2022-07-09T04:47:09;18.10;99.90
53422;DHT22;39319;52.944;5.928;2022-07-09T04:49:35;18.10;99.90
53422;DHT22;39319;52.944;5.928;2022-07-09T04:52:00;18.10;99.90
53422;DHT22;39319;52.944;5.928;2022-07-09T04:54:27;18.10;99.90
53422;DHT22;39319;52.944;5.928;2022-07-09T04:56:53;18.10;99.90
53422;DHT22;39319;52.944;5.928;2022-07-09T04:59:18;18.10;99.90
53422;DHT22;39319;52.944;5.928;2022-07-09T05:01:44;18.10;99.90
53422;DHT22;39319;52.944;5.928;2022-07-09T05:04:10;18.10;99.90
53422;DHT22;39319;52.944;5.928;2022-07-09T05:06:36;18.10;99.90
53422;DHT22;39319;52.944;5.928;2022-07-09T05:09:02;18.20;99.90
53422;DHT22;39319;52.944;5.928;2022-07-09T05:11:28;18.20;99.90
53422;DHT22;39319;52.944;5.928;2022-07-09T05:13:55;18.20;99.90
53422;DHT22;39319;52.944;5.928;2022-07-09T05:16:22;18.20;99.90
53422;DHT22;39319;52.944;5.928;2022-07-09T05:18:48;18.20;99.90
53422;DHT22;39319;52.944;5.928;2022-07-09T05:21:14;18.30;99.90
53422;DHT22;39319;52.944;5.928;2022-07-09T05:23:40;18.30;99.90
53422;DHT22;39319;52.944;5.928;2022-07-09T05:26:06;18.40;99.90
53422;DHT22;39319;52.944;5.928;2022-07-09T05:28:32;18.40;99.90
53422;DHT22;39319;52.944;5.928;2022-07-09T05:30:58;18.40;99.90
53422;DHT22;39319;52.944;5.928;2022-07-09T05:33:24;18.40;99.90
53422;DHT22;39319;52.944;5.928;2022-07-09T05:35:50;18.50;99.90
53422;DHT22;39319;52.944;5.928;2022-07-09T05:38:19;18.50;99.90
53422;DHT22;39319;52.944;5.928;2022-07-09T05:40:46;18.50;99.90
53422;DHT22;39319;52.944;5.928;2022-07-09T05:43:12;18.60;99.90
53422;DHT22;39319;52.944;5.928;2022-07-09T05:45:38;18.60;99.90
53422;DHT22;39319;52.944;5.928;2022-07-09T05:48:04;18.60;99.90
53422;DHT22;39319;52.944;5.928;2022-07-09T05:50:30;18.70;99.90
53422;DHT22;39319;52.944;5.928;2022-07-09T05:53:04;18.70;99.90
53422;DHT22;39319;52.944;5.928;2022-07-09T05:55:31;18.70;99.90
53422;DHT22;39319;52.944;5.928;2022-07-09T05:57:56;18.70;99.90
53422;DHT22;39319;52.944;5.928;2022-07-09T06:00:23;18.70;99.90
53422;DHT22;39319;52.944;5.928;2022-07-09T06:02:49;18.80;99.90
53422;DHT22;39319;52.944;5.928;2022-07-09T06:05:15;18.80;99.90
53422;DHT22;39319;52.944;5.928;2022-07-09T06:07:45;18.80;99.90
53422;DHT22;39319;52.944;5.928;2022-07-09T06:10:12;18.80;99.90
53422;DHT22;39319;52.944;5.928;2022-07-09T06:12:39;18.80;99.90
53422;DHT22;39319;52.944;5.928;2022-07-09T06:15:07;18.80;99.90
53422;DHT22;39319;52.944;5.928;2022-07-09T06:17:33;18.90;99.90
53422;DHT22;39319;52.944;5.928;2022-07-09T06:19:58;18.90;99.90
53422;DHT22;39319;52.944;5.928;2022-07-09T06:22:25;18.90;99.90
53422;DHT22;39319;52.944;5.928;2022-07-09T06:24:51;19.00;99.90
53422;DHT22;39319;52.944;5.928;2022-07-09T06:27:17;19.00;99.90
53422;DHT22;39319;52.944;5.928;2022-07-09T06:29:42;19.00;99.90
53422;DHT22;39319;52.944;5.928;2022-07-09T06:32:08;19.00;99.90
53422;DHT22;39319;52.944;5.928;2022-07-09T06:34:34;19.10;99.90
53422;DHT22;39319;52.944;5.928;2022-07-09T06:37:00;19.10;99.90
53422;DHT22;39319;52.944;5.928;2022-07-09T06:39:26;19.10;99.90
53422;DHT22;39319;52.944;5.928;2022-07-09T06:42:10;19.20;99.90
53422;DHT22;39319;52.944;5.928;2022-07-09T06:44:36;19.10;99.90
53422;DHT22;39319;52.944;5.928;2022-07-09T06:47:03;19.20;99.90
53422;DHT22;39319;52.944;5.928;2022-07-09T06:49:29;19.20;99.90
53422;DHT22;39319;52.944;5.928;2022-07-09T06:51:55;19.30;99.90
53422;DHT22;39319;52.944;5.928;2022-07-09T06:54:21;19.30;99.90
53422;DHT22;39319;52.944;5.928;2022-07-09T06:56:47;19.30;99.90
53422;DHT22;39319;52.944;5.928;2022-07-09T06:59:13;19.40;99.90
53422;DHT22;39319;52.944;5.928;2022-07-09T07:01:40;19.40;99.90
53422;DHT22;39319;52.944;5.928;2022-07-09T07:04:06;19.50;99.90
53422;DHT22;39319;52.944;5.928;2022-07-09T07:06:32;19.50;99.90
53422;DHT22;39319;52.944;5.928;2022-07-09T07:08:58;19.50;99.90
53422;DHT22;39319;52.944;5.928;2022-07-09T07:11:24;19.50;99.90
53422;DHT22;39319;52.944;5.928;2022-07-09T07:13:51;19.50;99.90
53422;DHT22;39319;52.944;5.928;2022-07-09T07:16:16;19.60;99.90
53422;DHT22;39319;52.944;5.928;2022-07-09T07:18:43;19.60;99.90
53422;DHT22;39319;52.944;5.928;2022-07-09T07:21:08;19.70;99.90
53422;DHT22;39319;52.944;5.928;2022-07-09T07:23:34;19.70;99.90
53422;DHT22;39319;52.944;5.928;2022-07-09T07:26:00;19.70;99.90
53422;DHT22;39319;52.944;5.928;2022-07-09T07:28:26;19.70;99.90
53422;DHT22;39319;52.944;5.928;2022-07-09T07:30:52;19.70;99.90
53422;DHT22;39319;52.944;5.928;2022-07-09T07:33:20;19.70;99.80
53422;DHT22;39319;52.944;5.928;2022-07-09T07:35:46;19.70;99.60
53422;DHT22;39319;52.944;5.928;2022-07-09T07:38:12;19.70;99.90
53422;DHT22;39319;52.944;5.928;2022-07-09T07:40:38;19.70;99.90
53422;DHT22;39319;52.944;5.928;2022-07-09T07:43:05;19.70;99.60
53422;DHT22;39319;52.944;5.928;2022-07-09T07:45:31;19.60;99.30
53422;DHT22;39319;52.944;5.928;2022-07-09T07:47:57;19.60;99.40
53422;DHT22;39319;52.944;5.928;2022-07-09T07:50:24;19.70;99.60
53422;DHT22;39319;52.944;5.928;2022-07-09T07:52:50;19.70;99.80
53422;DHT22;39319;52.944;5.928;2022-07-09T07:55:16;19.70;99.50
53422;DHT22;39319;52.944;5.928;2022-07-09T07:57:42;19.80;99.30
53422;DHT22;39319;52.944;5.928;2022-07-09T08:00:08;19.80;99.40
53422;DHT22;39319;52.944;5.928;2022-07-09T08:02:34;19.90;99.10
53422;DHT22;39319;52.944;5.928;2022-07-09T08:05:00;19.90;99.20
53422;DHT22;39319;52.944;5.928;2022-07-09T08:07:26;19.90;99.40
53422;DHT22;39319;52.944;5.928;2022-07-09T08:09:52;20.00;98.70
53422;DHT22;39319;52.944;5.928;2022-07-09T08:12:18;20.00;98.40
53422;DHT22;39319;52.944;5.928;2022-07-09T08:14:44;20.00;98.70
53422;DHT22;39319;52.944;5.928;2022-07-09T08:17:10;20.10;98.80
53422;DHT22;39319;52.944;5.928;2022-07-09T08:19:36;20.10;99.00
53422;DHT22;39319;52.944;5.928;2022-07-09T08:22:02;20.20;98.90
53422;DHT22;39319;52.944;5.928;2022-07-09T08:24:28;20.20;98.50
53422;DHT22;39319;52.944;5.928;2022-07-09T08:26:54;20.30;98.40
53422;DHT22;39319;52.944;5.928;2022-07-09T08:29:20;20.20;98.40
53422;DHT22;39319;52.944;5.928;2022-07-09T08:31:46;20.30;98.20
53422;DHT22;39319;52.944;5.928;2022-07-09T08:34:15;20.30;97.80
53422;DHT22;39319;52.944;5.928;2022-07-09T08:36:41;20.30;97.70
53422;DHT22;39319;52.944;5.928;2022-07-09T08:39:07;20.30;97.30
53422;DHT22;39319;52.944;5.928;2022-07-09T08:41:33;20.30;97.20
53422;DHT22;39319;52.944;5.928;2022-07-09T08:44:03;20.30;97.00
53422;DHT22;39319;52.944;5.928;2022-07-09T08:46:31;20.40;96.90
53422;DHT22;39319;52.944;5.928;2022-07-09T08:48:57;20.50;96.70
53422;DHT22;39319;52.944;5.928;2022-07-09T08:51:24;20.60;96.90
53422;DHT22;39319;52.944;5.928;2022-07-09T08:53:49;20.80;96.40
53422;DHT22;39319;52.944;5.928;2022-07-09T08:56:15;20.80;96.40
53422;DHT22;39319;52.944;5.928;2022-07-09T08:58:42;20.80;95.90
53422;DHT22;39319;52.944;5.928;2022-07-09T09:01:13;20.90;95.70
53422;DHT22;39319;52.944;5.928;2022-07-09T09:03:41;20.80;95.30
53422;DHT22;39319;52.944;5.928;2022-07-09T09:06:09;20.90;95.60
53422;DHT22;39319;52.944;5.928;2022-07-09T09:08:42;20.90;95.20
53422;DHT22;39319;52.944;5.928;2022-07-09T09:11:14;21.00;95.50
53422;DHT22;39319;52.944;5.928;2022-07-09T09:13:43;21.00;94.70
53422;DHT22;39319;52.944;5.928;2022-07-09T09:16:10;21.00;94.70
53422;DHT22;39319;52.944;5.928;2022-07-09T09:18:40;21.00;94.90
53422;DHT22;39319;52.944;5.928;2022-07-09T09:21:07;21.10;95.20
53422;DHT22;39319;52.944;5.928;2022-07-09T09:26:17;21.30;94.70
53422;DHT22;39319;52.944;5.928;2022-07-09T09:28:57;21.40;94.60
53422;DHT22;39319;52.944;5.928;2022-07-09T09:31:34;21.40;94.40
53422;DHT22;39319;52.944;5.928;2022-07-09T09:34:13;21.40;94.30
53422;DHT22;39319;52.944;5.928;2022-07-09T09:36:44;21.40;94.20
53422;DHT22;39319;52.944;5.928;2022-07-09T09:39:20;21.40;94.10
53422;DHT22;39319;52.944;5.928;2022-07-09T09:41:49;21.40;93.90
53422;DHT22;39319;52.944;5.928;2022-07-09T09:44:20;21.50;94.30
53422;DHT22;39319;52.944;5.928;2022-07-09T09:46:46;21.60;93.00
53422;DHT22;39319;52.944;5.928;2022-07-09T09:49:14;21.50;93.00
53422;DHT22;39319;52.944;5.928;2022-07-09T09:52:04;21.60;92.80
53422;DHT22;39319;52.944;5.928;2022-07-09T09:54:35;21.60;93.20
53422;DHT22;39319;52.944;5.928;2022-07-09T09:57:06;21.60;92.40
53422;DHT22;39319;52.944;5.928;2022-07-09T09:59:42;21.70;92.40
53422;DHT22;39319;52.944;5.928;2022-07-09T10:02:10;21.70;92.40
53422;DHT22;39319;52.944;5.928;2022-07-09T10:04:37;21.80;92.60
53422;DHT22;39319;52.944;5.928;2022-07-09T10:07:04;21.90;92.30
53422;DHT22;39319;52.944;5.928;2022-07-09T10:09:30;21.90;92.20
53422;DHT22;39319;52.944;5.928;2022-07-09T10:12:09;21.70;92.30
53422;DHT22;39319;52.944;5.928;2022-07-09T10:14:37;21.60;92.80
53422;DHT22;39319;52.944;5.928;2022-07-09T10:17:13;21.60;92.90
53422;DHT22;39319;52.944;5.928;2022-07-09T10:19:57;21.60;92.90
53422;DHT22;39319;52.944;5.928;2022-07-09T10:22:38;21.70;92.70
53422;DHT22;39319;52.944;5.928;2022-07-09T10:25:07;21.80;92.90
53422;DHT22;39319;52.944;5.928;2022-07-09T10:27:47;21.80;91.90
53422;DHT22;39319;52.944;5.928;2022-07-09T10:30:27;21.70;91.80
53422;DHT22;39319;52.944;5.928;2022-07-09T10:33:26;21.70;92.10
53422;DHT22;39319;52.944;5.928;2022-07-09T10:35:56;21.60;92.20
53422;DHT22;39319;52.944;5.928;2022-07-09T10:38:34;21.80;92.70
53422;DHT22;39319;52.944;5.928;2022-07-09T10:41:00;22.10;92.60
53422;DHT22;39319;52.944;5.928;2022-07-09T10:43:40;22.30;92.20
53422;DHT22;39319;52.944;5.928;2022-07-09T10:46:14;22.30;92.00
53422;DHT22;39319;52.944;5.928;2022-07-09T10:48:41;22.40;91.10
53422;DHT22;39319;52.944;5.928;2022-07-09T10:51:17;22.20;90.90
53422;DHT22;39319;52.944;5.928;2022-07-09T10:53:43;22.10;91.50
53422;DHT22;39319;52.944;5.928;2022-07-09T10:56:09;22.00;92.00
53422;DHT22;39319;52.944;5.928;2022-07-09T10:58:35;21.90;91.90
53422;DHT22;39319;52.944;5.928;2022-07-09T11:01:03;22.00;92.30
53422;DHT22;39319;52.944;5.928;2022-07-09T11:03:31;21.60;92.20
53422;DHT22;39319;52.944;5.928;2022-07-09T11:05:57;21.50;92.30
53422;DHT22;39319;52.944;5.928;2022-07-09T11:08:23;21.60;92.70
53422;DHT22;39319;52.944;5.928;2022-07-09T11:10:49;21.60;92.30
53422;DHT22;39319;52.944;5.928;2022-07-09T11:13:15;21.70;92.40
53422;DHT22;39319;52.944;5.928;2022-07-09T11:15:41;21.60;92.10
53422;DHT22;39319;52.944;5.928;2022-07-09T11:18:11;21.60;92.10
53422;DHT22;39319;52.944;5.928;2022-07-09T11:20:47;21.60;91.80
53422;DHT22;39319;52.944;5.928;2022-07-09T11:23:16;21.60;91.90
53422;DHT22;39319;52.944;5.928;2022-07-09T11:25:42;21.60;91.70
53422;DHT22;39319;52.944;5.928;2022-07-09T11:28:09;21.60;91.30
53422;DHT22;39319;52.944;5.928;2022-07-09T11:30:44;21.60;90.90
53422;DHT22;39319;52.944;5.928;2022-07-09T11:33:12;21.70;91.50
53422;DHT22;39319;52.944;5.928;2022-07-09T11:35:38;21.90;90.50
53422;DHT22;39319;52.944;5.928;2022-07-09T11:38:05;22.20;89.60
53422;DHT22;39319;52.944;5.928;2022-07-09T11:40:34;22.40;90.20
53422;DHT22;39319;52.944;5.928;2022-07-09T11:43:00;22.70;88.10
53422;DHT22;39319;52.944;5.928;2022-07-09T11:45:28;22.80;86.30
53422;DHT22;39319;52.944;5.928;2022-07-09T11:48:07;23.00;84.80
53422;DHT22;39319;52.944;5.928;2022-07-09T11:50:41;23.10;85.20
53422;DHT22;39319;52.944;5.928;2022-07-09T11:53:30;23.30;84.40
53422;DHT22;39319;52.944;5.928;2022-07-09T11:56:02;23.50;82.30
53422;DHT22;39319;52.944;5.928;2022-07-09T11:58:29;23.60;82.10
53422;DHT22;39319;52.944;5.928;2022-07-09T12:00:55;23.70;80.20
53422;DHT22;39319;52.944;5.928;2022-07-09T12:03:25;23.90;79.80
53422;DHT22;39319;52.944;5.928;2022-07-09T12:05:51;24.00;76.40
53422;DHT22;39319;52.944;5.928;2022-07-09T12:08:29;24.10;77.70
53422;DHT22;39319;52.944;5.928;2022-07-09T12:10:57;24.20;77.50
53422;DHT22;39319;52.944;5.928;2022-07-09T12:13:22;24.30;78.40
53422;DHT22;39319;52.944;5.928;2022-07-09T12:15:48;24.30;76.80
53422;DHT22;39319;52.944;5.928;2022-07-09T12:18:14;24.40;77.60
53422;DHT22;39319;52.944;5.928;2022-07-09T12:20:40;24.40;77.00
53422;DHT22;39319;52.944;5.928;2022-07-09T12:23:06;24.60;75.80
53422;DHT22;39319;52.944;5.928;2022-07-09T12:25:32;24.60;75.40
53422;DHT22;39319;52.944;5.928;2022-07-09T12:27:58;24.60;74.20
53422;DHT22;39319;52.944;5.928;2022-07-09T12:30:23;24.70;73.00
53422;DHT22;39319;52.944;5.928;2022-07-09T12:32:50;24.60;73.50
53422;DHT22;39319;52.944;5.928;2022-07-09T12:35:15;24.60;72.80
53422;DHT22;39319;52.944;5.928;2022-07-09T12:37:42;24.60;73.00
53422;DHT22;39319;52.944;5.928;2022-07-09T12:40:10;24.60;73.40
53422;DHT22;39319;52.944;5.928;2022-07-09T12:42:37;24.60;73.10
53422;DHT22;39319;52.944;5.928;2022-07-09T12:45:03;24.60;73.20
53422;DHT22;39319;52.944;5.928;2022-07-09T12:47:29;24.70;73.50
53422;DHT22;39319;52.944;5.928;2022-07-09T12:49:55;24.60;73.90
53422;DHT22;39319;52.944;5.928;2022-07-09T12:52:21;24.60;72.90
53422;DHT22;39319;52.944;5.928;2022-07-09T12:54:46;24.60;73.10
53422;DHT22;39319;52.944;5.928;2022-07-09T12:57:12;24.50;74.00
53422;DHT22;39319;52.944;5.928;2022-07-09T12:59:38;24.60;73.60
53422;DHT22;39319;52.944;5.928;2022-07-09T13:02:05;24.70;71.80
53422;DHT22;39319;52.944;5.928;2022-07-09T13:04:31;24.80;72.20
53422;DHT22;39319;52.944;5.928;2022-07-09T13:06:57;24.80;71.50
53422;DHT22;39319;52.944;5.928;2022-07-09T13:09:23;24.70;73.00
53422;DHT22;39319;52.944;5.928;2022-07-09T13:11:49;24.80;71.70
53422;DHT22;39319;52.944;5.928;2022-07-09T13:14:16;24.70;70.30
53422;DHT22;39319;52.944;5.928;2022-07-09T13:16:42;24.70;73.40
53422;DHT22;39319;52.944;5.928;2022-07-09T13:19:07;24.80;73.00
53422;DHT22;39319;52.944;5.928;2022-07-09T13:21:33;24.90;74.40
53422;DHT22;39319;52.944;5.928;2022-07-09T13:23:59;25.00;72.20
53422;DHT22;39319;52.944;5.928;2022-07-09T13:26:25;24.90;71.90
53422;DHT22;39319;52.944;5.928;2022-07-09T13:28:50;25.00;72.20
53422;DHT22;39319;52.944;5.928;2022-07-09T13:31:18;25.00;72.50
53422;DHT22;39319;52.944;5.928;2022-07-09T13:33:46;25.00;71.00
53422;DHT22;39319;52.944;5.928;2022-07-09T13:36:13;24.90;70.20
53422;DHT22;39319;52.944;5.928;2022-07-09T13:38:39;24.70;70.60
53422;DHT22;39319;52.944;5.928;2022-07-09T13:41:05;24.60;71.40
53422;DHT22;39319;52.944;5.928;2022-07-09T13:43:30;24.50;70.80
53422;DHT22;39319;52.944;5.928;2022-07-09T13:45:58;24.30;70.60
53422;DHT22;39319;52.944;5.928;2022-07-09T13:48:25;24.10;71.30
53422;DHT22;39319;52.944;5.928;2022-07-09T13:50:51;23.90;70.80
53422;DHT22;39319;52.944;5.928;2022-07-09T13:53:20;23.70;72.20
53422;DHT22;39319;52.944;5.928;2022-07-09T13:55:46;23.60;72.70
53422;DHT22;39319;52.944;5.928;2022-07-09T13:58:12;23.50;72.80
53422;DHT22;39319;52.944;5.928;2022-07-09T14:00:38;23.50;73.80
53422;DHT22;39319;52.944;5.928;2022-07-09T14:03:04;23.50;72.90
53422;DHT22;39319;52.944;5.928;2022-07-09T14:05:30;23.60;74.30
53422;DHT22;39319;52.944;5.928;2022-07-09T14:07:56;23.70;74.20
53422;DHT22;39319;52.944;5.928;2022-07-09T14:10:22;23.70;72.90
53422;DHT22;39319;52.944;5.928;2022-07-09T14:12:48;23.80;73.30
53422;DHT22;39319;52.944;5.928;2022-07-09T14:15:14;23.90;72.20
53422;DHT22;39319;52.944;5.928;2022-07-09T14:17:42;23.70;72.70
53422;DHT22;39319;52.944;5.928;2022-07-09T14:20:08;23.60;72.50
53422;DHT22;39319;52.944;5.928;2022-07-09T14:22:34;23.50;73.20
53422;DHT22;39319;52.944;5.928;2022-07-09T14:25:00;23.40;73.40
53422;DHT22;39319;52.944;5.928;2022-07-09T14:27:29;23.30;73.80
53422;DHT22;39319;52.944;5.928;2022-07-09T14:29:54;23.20;75.00
53422;DHT22;39319;52.944;5.928;2022-07-09T14:32:21;23.00;76.10
53422;DHT22;39319;52.944;5.928;2022-07-09T14:34:47;23.00;75.90
53422;DHT22;39319;52.944;5.928;2022-07-09T14:37:13;22.80;75.10
53422;DHT22;39319;52.944;5.928;2022-07-09T14:39:39;22.80;75.30
53422;DHT22;39319;52.944;5.928;2022-07-09T14:42:05;22.60;75.50
53422;DHT22;39319;52.944;5.928;2022-07-09T14:44:31;22.50;76.00
53422;DHT22;39319;52.944;5.928;2022-07-09T14:46:57;22.40;76.20
53422;DHT22;39319;52.944;5.928;2022-07-09T14:49:26;22.30;76.20
53422;DHT22;39319;52.944;5.928;2022-07-09T14:51:52;22.30;76.30
53422;DHT22;39319;52.944;5.928;2022-07-09T14:54:18;22.30;76.40
53422;DHT22;39319;52.944;5.928;2022-07-09T14:56:45;22.40;75.90
53422;DHT22;39319;52.944;5.928;2022-07-09T14:59:11;22.40;74.70
53422;DHT22;39319;52.944;5.928;2022-07-09T15:01:38;22.40;75.00
53422;DHT22;39319;52.944;5.928;2022-07-09T15:04:04;22.50;73.90
53422;DHT22;39319;52.944;5.928;2022-07-09T15:06:33;22.60;73.80
53422;DHT22;39319;52.944;5.928;2022-07-09T15:08:59;22.70;74.20
53422;DHT22;39319;52.944;5.928;2022-07-09T15:11:24;22.80;73.40
53422;DHT22;39319;52.944;5.928;2022-07-09T15:13:50;22.90;74.70
53422;DHT22;39319;52.944;5.928;2022-07-09T15:16:16;23.00;73.10
53422;DHT22;39319;52.944;5.928;2022-07-09T15:18:42;23.10;71.70
53422;DHT22;39319;52.944;5.928;2022-07-09T15:21:08;23.20;72.10
53422;DHT22;39319;52.944;5.928;2022-07-09T15:23:36;23.20;71.40
53422;DHT22;39319;52.944;5.928;2022-07-09T15:26:02;23.10;70.40
53422;DHT22;39319;52.944;5.928;2022-07-09T15:28:37;23.00;71.30
53422;DHT22;39319;52.944;5.928;2022-07-09T15:31:03;22.90;74.90
53422;DHT22;39319;52.944;5.928;2022-07-09T15:33:29;22.80;74.60